createdAt,value
2024-02-04T00:00:16.590Z,101102.25
2024-02-04T00:02:20.870Z,101104.88
2024-02-04T00:04:29.070Z,101103.13
2024-02-04T00:06:31.718Z,101097.06
2024-02-04T00:08:34.736Z,101096.25
2024-02-04T00:10:37.455Z,101097.13
2024-02-04T00:12:41.179Z,101091.91
2024-02-04T00:14:43.702Z,101091.94
2024-02-04T00:16:46.215Z,101094.56
2024-02-04T00:18:50.809Z,101090.25
2024-02-04T00:20:54.884Z,101086.78
2024-02-04T00:22:57.405Z,101093.72
2024-02-04T00:25:07.491Z,101093.75
2024-02-04T00:27:11.210Z,101111.19
2024-02-04T00:29:16.572Z,101111.19
2024-02-04T00:31:19.849Z,101100.75
2024-02-04T00:33:23.356Z,101117.31
2024-02-04T00:35:27.558Z,101102.50
2024-02-04T00:37:30.050Z,101106.88
2024-02-04T00:39:33.267Z,101107.78
2024-02-04T00:41:37.026Z,101101.66
2024-02-04T00:43:39.574Z,101106.94
2024-02-04T00:45:42.083Z,101110.44
2024-02-04T00:47:44.981Z,101102.63
2024-02-04T00:49:48.437Z,101101.78
2024-02-04T00:51:51.782Z,101101.78
2024-02-04T00:53:54.557Z,101095.69
2024-02-04T00:55:57.426Z,101093.97
2024-02-04T00:58:02.189Z,101105.28
2024-02-04T01:00:06.721Z,101094.84
2024-02-04T01:02:09.273Z,101101.78
2024-02-04T01:04:12.457Z,101100.06
2024-02-04T01:06:15.585Z,101102.69
2024-02-04T01:08:18.461Z,101101.84
2024-02-04T01:10:21.782Z,101107.06
2024-02-04T01:12:24.330Z,101107.94
2024-02-04T01:14:26.808Z,101106.19
2024-02-04T01:16:30.475Z,101105.31
2024-02-04T01:18:34.896Z,101100.97
2024-02-04T01:20:38.023Z,101109.69
2024-02-04T01:22:40.482Z,101103.63
2024-02-04T01:24:43.368Z,101099.28
2024-02-04T01:26:46.404Z,101101.03
2024-02-04T01:28:49.566Z,101097.53
2024-02-04T01:30:52.045Z,101098.44
2024-02-04T01:32:56.032Z,101107.13
2024-02-04T01:34:59.329Z,101098.44
2024-02-04T01:37:02.485Z,101105.44
2024-02-04T01:39:06.296Z,101090.66
2024-02-04T01:41:08.892Z,101095.88
2024-02-04T01:43:12.371Z,101095.91
2024-02-04T01:45:14.885Z,101088.94
2024-02-04T01:47:17.754Z,101093.31
2024-02-04T01:49:20.838Z,101089.81
2024-02-04T01:51:24.291Z,101091.56
2024-02-04T01:53:28.358Z,101095.03
2024-02-04T01:55:30.871Z,101093.31
2024-02-04T01:57:37.630Z,101098.53
2024-02-04T01:59:41.775Z,101093.31
2024-02-04T02:01:46.649Z,101090.72
2024-02-04T02:03:51.786Z,101085.50
2024-02-04T02:05:55.041Z,101081.16
2024-02-04T02:07:57.712Z,101088.13
2024-02-04T02:10:00.974Z,101088.16
2024-02-04T02:12:37.156Z,101084.66
2024-02-04T02:14:58.889Z,101092.53
2024-02-04T02:17:07.865Z,101093.41
2024-02-04T02:19:28.090Z,101084.69
2024-02-04T02:21:52.282Z,101082.94
2024-02-04T02:24:27.031Z,101089.03
2024-02-04T02:26:30.912Z,101081.22
2024-02-04T02:28:34.925Z,101076.00
2024-02-04T02:30:38.401Z,101076.88
2024-02-04T02:32:41.814Z,101078.69
2024-02-04T02:34:44.661Z,101079.53
2024-02-04T02:36:54.473Z,101082.97
2024-02-04T02:39:11.761Z,101078.63
2024-02-04T02:41:17.315Z,101071.72
2024-02-04T02:43:21.071Z,101074.34
2024-02-04T02:45:26.573Z,101071.72
2024-02-04T02:47:31.184Z,101077.81
2024-02-04T02:49:34.563Z,101077.81
2024-02-04T02:51:37.134Z,101070.00
2024-02-04T02:53:40.417Z,101075.25
2024-02-04T02:55:43.319Z,101077.81
2024-02-04T02:57:46.519Z,101075.25
2024-02-04T02:59:48.998Z,101074.38
2024-02-04T03:01:51.949Z,101072.63
2024-02-04T03:03:54.471Z,101070.91
2024-02-04T03:05:57.713Z,101077.88
2024-02-04T03:08:00.617Z,101070.03
2024-02-04T03:10:03.807Z,101063.94
2024-02-04T03:12:06.706Z,101073.53
2024-02-04T03:14:09.360Z,101063.97
2024-02-04T03:16:13.276Z,101061.38
2024-02-04T03:18:15.917Z,101061.34
2024-02-04T03:20:18.510Z,101049.19
2024-02-04T03:22:23.217Z,101051.78
2024-02-04T03:24:26.190Z,101050.06
2024-02-04T03:26:29.586Z,101057.88
2024-02-04T03:28:33.169Z,101045.75
2024-02-04T03:30:36.413Z,101053.56
2024-02-04T03:32:39.679Z,101055.31
2024-02-04T03:34:45.919Z,101068.34
2024-02-04T03:36:49.018Z,101057.06
2024-02-04T03:38:52.229Z,101057.94
2024-02-04T03:40:56.335Z,101055.31
2024-02-04T03:42:58.835Z,101060.56
2024-02-04T03:45:03.451Z,101055.41
2024-02-04T03:47:06.295Z,101051.91
2024-02-04T03:49:10.346Z,101059.75
2024-02-04T03:51:20.624Z,101059.75
2024-02-04T03:53:24.602Z,101058.91
2024-02-04T03:55:27.110Z,101065.00
2024-02-04T03:57:29.610Z,101054.56
2024-02-04T03:59:32.108Z,101051.97
2024-02-04T04:01:35.619Z,101057.19
2024-02-04T04:03:40.481Z,101054.56
2024-02-04T04:05:43.071Z,101051.09
2024-02-04T04:07:46.182Z,101054.59
2024-02-04T04:09:49.223Z,101050.25
2024-02-04T04:11:51.759Z,101046.78
2024-02-04T04:13:55.331Z,101039.84
2024-02-04T04:15:58.807Z,101036.38
2024-02-04T04:18:02.237Z,101033.78
2024-02-04T04:20:09.778Z,101033.84
2024-02-04T04:22:12.315Z,101025.16
2024-02-04T04:24:17.695Z,101021.69
2024-02-04T04:26:20.329Z,101024.28
2024-02-04T04:28:24.022Z,101020.81
2024-02-04T04:30:26.907Z,101016.50
2024-02-04T04:32:29.550Z,101025.19
2024-02-04T04:34:32.795Z,101021.72
2024-02-04T04:36:35.833Z,101016.50
2024-02-04T04:38:38.303Z,101018.25
2024-02-04T04:40:42.135Z,101018.28
2024-02-04T04:42:44.659Z,101015.69
2024-02-04T04:44:47.699Z,101002.66
2024-02-04T04:46:52.316Z,101006.13
2024-02-04T04:48:56.073Z,101004.41
2024-02-04T04:50:59.307Z,101004.41
2024-02-04T04:53:02.656Z,101002.69
2024-02-04T04:55:05.895Z,101001.81
2024-02-04T04:57:08.459Z,101002.72
2024-02-04T04:59:11.336Z,100997.50
2024-02-04T05:01:14.486Z,100997.50
2024-02-04T05:03:17.227Z,101001.88
2024-02-04T05:05:20.972Z,101000.13
2024-02-04T05:07:24.232Z,100995.81
2024-02-04T05:09:27.362Z,100999.25
2024-02-04T05:11:30.304Z,100990.59
2024-02-04T05:13:32.704Z,100985.38
2024-02-04T05:15:38.474Z,100992.31
2024-02-04T05:17:41.040Z,100981.88
2024-02-04T05:19:44.347Z,100985.38
2024-02-04T05:21:46.921Z,100981.88
2024-02-04T05:23:49.347Z,100981.88
2024-02-04T05:25:52.186Z,100981.91
2024-02-04T05:27:55.243Z,100977.56
2024-02-04T05:29:57.958Z,100973.19
2024-02-04T05:32:01.462Z,100968.88
2024-02-04T05:34:08.646Z,100971.47
2024-02-04T05:36:11.205Z,100959.31
2024-02-04T05:38:14.142Z,100960.19
2024-02-04T05:40:19.044Z,100968.00
2024-02-04T05:42:24.749Z,100968.00
2024-02-04T05:44:27.264Z,100956.72
2024-02-04T05:46:29.974Z,100948.88
2024-02-04T05:48:32.792Z,100943.69
2024-02-04T05:50:35.546Z,100942.81
2024-02-04T05:52:38.481Z,100940.19
2024-02-04T05:54:41.396Z,100941.06
2024-02-04T05:56:44.595Z,100940.19
2024-02-04T05:58:47.335Z,100943.72
2024-02-04T06:00:50.029Z,100942.81
2024-02-04T06:02:53.826Z,100941.94
2024-02-04T06:04:56.427Z,100947.16
2024-02-04T06:06:59.893Z,100946.31
2024-02-04T06:09:03.314Z,100941.97
2024-02-04T06:11:05.925Z,100944.56
2024-02-04T06:13:08.741Z,100957.59
2024-02-04T06:15:16.253Z,100952.41
2024-02-04T06:17:19.116Z,100961.09
2024-02-04T06:19:21.639Z,100955.00
2024-02-04T06:21:24.281Z,100953.28
2024-02-04T06:23:26.742Z,100951.53
2024-02-04T06:25:29.415Z,100944.59
2024-02-04T06:27:33.258Z,100943.72
2024-02-04T06:29:36.153Z,100942.88
2024-02-04T06:31:38.659Z,100938.50
2024-02-04T06:33:41.752Z,100936.78
2024-02-04T06:35:45.159Z,100941.97
2024-02-04T06:37:48.176Z,100942.84
2024-02-04T06:39:50.669Z,100932.44
2024-02-04T06:41:53.256Z,100922.00
2024-02-04T06:43:56.482Z,100928.97
2024-02-04T06:45:59.623Z,100922.84
2024-02-04T06:48:02.939Z,100934.16
2024-02-04T06:50:06.969Z,100934.16
2024-02-04T06:52:10.395Z,100926.34
2024-02-04T06:54:13.657Z,100924.59
2024-02-04T06:56:16.940Z,100923.72
2024-02-04T06:58:19.465Z,100927.22
2024-02-04T07:00:23.046Z,100921.97
2024-02-04T07:02:25.552Z,100913.31
2024-02-04T07:04:28.572Z,100902.09
2024-02-04T07:06:31.948Z,100919.41
2024-02-04T07:08:34.601Z,100915.94
2024-02-04T07:10:37.841Z,100915.06
2024-02-04T07:12:41.009Z,100911.56
2024-02-04T07:14:43.474Z,100909.00
2024-02-04T07:16:46.021Z,100904.69
2024-02-04T07:18:49.089Z,100903.75
2024-02-04T07:20:55.118Z,100904.63
2024-02-04T07:22:57.572Z,100906.38
2024-02-04T07:25:00.484Z,100908.97
2024-02-04T07:27:03.655Z,100907.25
2024-02-04T07:29:06.477Z,100906.38
2024-02-04T07:31:10.018Z,100902.03
2024-02-04T07:33:13.304Z,100904.69
2024-02-04T07:35:15.881Z,100898.59
2024-02-04T07:37:19.514Z,100902.94
2024-02-04T07:39:21.996Z,100906.44
2024-02-04T07:41:24.785Z,100894.28
2024-02-04T07:43:27.474Z,100890.78
2024-02-04T07:45:29.986Z,100896.03
2024-02-04T07:47:32.980Z,100892.53
2024-02-04T07:49:36.225Z,100892.50
2024-02-04T07:51:39.987Z,100887.31
2024-02-04T07:53:43.011Z,100881.22
2024-02-04T07:55:45.561Z,100886.44
2024-02-04T07:57:48.511Z,100889.06
2024-02-04T07:59:51.048Z,100886.44
2024-02-04T08:01:54.032Z,100882.97
2024-02-04T08:03:56.652Z,100883.84
2024-02-04T08:05:59.129Z,100881.25
2024-02-04T08:08:02.401Z,100882.09
2024-02-04T08:10:06.127Z,100880.38
2024-02-04T08:12:09.589Z,100879.50
2024-02-04T08:14:12.082Z,100879.53
2024-02-04T08:16:14.917Z,100882.13
2024-02-04T08:18:17.705Z,100876.91
2024-02-04T08:20:21.077Z,100881.25
2024-02-04T08:22:25.188Z,100876.06
2024-02-04T08:24:27.746Z,100876.06
2024-02-04T08:26:30.264Z,100868.28
2024-02-04T08:28:34.076Z,100872.59
2024-02-04T08:30:36.691Z,100876.94
2024-02-04T08:32:40.408Z,100883.03
2024-02-04T08:34:43.485Z,100879.53
2024-02-04T08:36:46.047Z,100877.81
2024-02-04T08:38:48.586Z,100864.81
2024-02-04T08:40:51.369Z,100863.09
2024-02-04T08:42:53.913Z,100857.00
2024-02-04T08:44:56.362Z,100867.44
2024-02-04T08:46:59.207Z,100867.44
2024-02-04T08:49:02.255Z,100870.94
2024-02-04T08:51:04.979Z,100865.72
2024-02-04T08:53:08.279Z,100860.50
2024-02-04T08:55:10.911Z,100855.34
2024-02-04T08:57:13.982Z,100853.63
2024-02-04T08:59:17.282Z,100856.25
2024-02-04T09:01:22.017Z,100853.66
2024-02-04T09:03:24.815Z,100854.53
2024-02-04T09:05:27.310Z,100851.06
2024-02-04T09:07:31.753Z,100848.53
2024-02-04T09:09:36.189Z,100850.25
2024-02-04T09:11:38.727Z,100850.25
2024-02-04T09:13:41.412Z,100853.81
2024-02-04T09:15:44.482Z,100859.03
2024-02-04T09:17:47.938Z,100859.03
2024-02-04T09:19:50.923Z,100857.31
2024-02-04T09:21:53.607Z,100849.50
2024-02-04T09:23:56.919Z,100853.00
2024-02-04T09:25:59.528Z,100849.53
2024-02-04T09:28:02.864Z,100844.38
2024-02-04T09:30:07.798Z,100847.03
2024-02-04T09:32:11.150Z,100854.00
2024-02-04T09:34:14.884Z,100859.22
2024-02-04T09:36:19.084Z,100853.16
2024-02-04T09:38:23.276Z,100847.09
2024-02-04T09:40:26.346Z,100850.63
2024-02-04T09:42:29.724Z,100862.78
2024-02-04T09:44:33.965Z,100857.59
2024-02-04T09:46:37.114Z,100869.75
2024-02-04T09:48:41.574Z,100875.84
2024-02-04T09:50:45.657Z,100882.78
2024-02-04T09:52:54.462Z,100873.31
2024-02-04T09:55:07.962Z,100882.00
2024-02-04T09:57:11.257Z,100875.06
2024-02-04T09:59:14.177Z,100873.34
2024-02-04T10:01:17.554Z,100880.28
2024-02-04T10:03:20.237Z,100893.31
2024-02-04T10:05:23.818Z,100888.09
2024-02-04T10:07:27.107Z,100899.38
2024-02-04T10:09:31.346Z,100897.69
2024-02-04T10:11:34.020Z,100889.03
2024-02-04T10:13:46.765Z,100898.56
2024-02-04T10:15:50.856Z,100903.78
2024-02-04T10:17:55.939Z,100906.38
2024-02-04T10:19:59.042Z,100893.38
2024-02-04T10:22:06.442Z,100899.44
2024-02-04T10:24:09.784Z,100899.44
2024-02-04T10:26:12.830Z,100901.22
2024-02-04T10:28:18.376Z,100896.88
2024-02-04T10:30:24.309Z,100895.16
2024-02-04T10:32:28.095Z,100897.75
2024-02-04T10:34:31.653Z,100890.81
2024-02-04T10:36:34.216Z,100894.28
2024-02-04T10:38:37.122Z,100899.50
2024-02-04T10:40:39.552Z,100896.03
2024-02-04T10:42:44.900Z,100892.56
2024-02-04T10:44:50.070Z,100906.44
2024-02-04T10:46:53.533Z,100909.06
2024-02-04T10:49:09.760Z,100902.13
2024-02-04T10:51:18.647Z,100913.38
2024-02-04T10:53:24.058Z,100908.19
2024-02-04T10:55:32.970Z,100908.19
2024-02-04T10:57:37.424Z,100908.19
2024-02-04T10:59:40.832Z,100901.25
2024-02-04T11:01:43.639Z,100908.19
2024-02-04T11:03:48.691Z,100905.59
2024-02-04T11:05:53.657Z,100902.97
2024-02-04T11:07:57.428Z,100901.28
2024-02-04T11:10:01.456Z,100895.22
2024-02-04T11:12:09.696Z,100896.09
2024-02-04T11:14:15.665Z,100896.94
2024-02-04T11:16:47.762Z,100895.22
2024-02-04T11:19:00.222Z,100895.22
2024-02-04T11:21:14.703Z,100895.22
2024-02-04T11:23:39.834Z,100889.16
2024-02-04T11:26:09.300Z,100893.47
2024-02-04T11:28:17.565Z,100896.94
2024-02-04T11:30:21.566Z,100885.69
2024-02-04T11:32:27.522Z,100889.13
2024-02-04T11:34:31.157Z,100888.28
2024-02-04T11:36:43.751Z,100885.69
2024-02-04T11:38:51.587Z,100877.88
2024-02-04T11:40:54.518Z,100888.28
2024-02-04T11:43:24.815Z,100877.88
2024-02-04T11:45:28.424Z,100873.56
2024-02-04T11:47:31.831Z,100872.69
2024-02-04T11:49:35.466Z,100863.16
2024-02-04T11:51:40.248Z,100870.09
2024-02-04T11:53:43.303Z,100877.88
2024-02-04T11:55:47.940Z,100883.94
2024-02-04T11:57:50.514Z,100883.06
2024-02-04T11:59:56.200Z,100887.41
2024-02-04T12:02:00.779Z,100890.88
2024-02-04T12:04:18.969Z,100881.34
2024-02-04T12:06:21.725Z,100883.94
2024-02-04T12:08:25.609Z,100883.09
2024-02-04T12:10:28.766Z,100881.34
2024-02-04T12:12:33.759Z,100877.88
2024-02-04T12:14:37.512Z,100878.75
2024-02-04T12:16:40.142Z,100875.28
2024-02-04T12:18:52.823Z,100884.81
2024-02-04T12:20:55.976Z,100879.63
2024-02-04T12:22:58.638Z,100880.50
2024-02-04T12:25:01.672Z,100890.03
2024-02-04T12:27:06.220Z,100886.53
2024-02-04T12:29:09.928Z,100885.66
2024-02-04T12:31:20.605Z,100903.00
2024-02-04T12:33:24.142Z,100895.19
2024-02-04T12:35:30.487Z,100913.38
2024-02-04T12:37:35.624Z,100912.53
2024-02-04T12:39:38.889Z,100910.78
2024-02-04T12:41:41.833Z,100912.53
2024-02-04T12:43:49.052Z,100913.38
2024-02-04T12:45:51.585Z,100904.72
2024-02-04T12:47:55.942Z,100915.13
2024-02-04T12:50:02.835Z,100903.00
2024-02-04T12:52:09.793Z,100909.91
2024-02-04T12:54:15.030Z,100913.34
2024-02-04T12:56:19.090Z,100922.03
2024-02-04T12:58:21.572Z,100903.84
2024-02-04T13:00:24.110Z,100924.63
2024-02-04T13:02:27.428Z,100927.22
2024-02-04T13:04:36.816Z,100925.50
2024-02-04T13:06:41.011Z,100928.94
2024-02-04T13:08:43.521Z,100927.22
2024-02-04T13:10:55.009Z,100933.25
2024-02-04T13:13:04.475Z,100935.84
2024-02-04T13:15:07.893Z,100940.19
2024-02-04T13:17:11.302Z,100939.31
2024-02-04T13:19:14.459Z,100939.31
2024-02-04T13:21:21.449Z,100941.03
2024-02-04T13:23:24.283Z,100937.56
2024-02-04T13:25:28.107Z,100939.31
2024-02-04T13:27:33.351Z,100941.88
2024-02-04T13:29:39.512Z,100938.41
2024-02-04T13:31:45.408Z,100947.94
2024-02-04T13:33:49.170Z,100939.25
2024-02-04T13:35:52.518Z,100939.25
2024-02-04T13:37:56.926Z,100940.97
2024-02-04T13:40:00.700Z,100942.72
2024-02-04T13:42:04.212Z,100934.91
2024-02-04T13:44:09.381Z,100942.66
2024-02-04T13:46:12.081Z,100942.66
2024-02-04T13:48:14.595Z,100940.94
2024-02-04T13:50:17.883Z,100940.06
2024-02-04T13:52:20.430Z,100943.53
2024-02-04T13:54:23.630Z,100947.84
2024-02-04T13:56:26.658Z,100935.69
2024-02-04T13:58:29.656Z,100957.38
2024-02-04T14:00:32.646Z,100940.88
2024-02-04T14:02:36.237Z,100950.38
2024-02-04T14:04:39.195Z,100943.44
2024-02-04T14:06:43.065Z,100940.81
2024-02-04T14:08:46.553Z,100940.81
2024-02-04T14:10:49.439Z,100939.94
2024-02-04T14:12:53.716Z,100944.28
2024-02-04T14:14:57.408Z,100939.06
2024-02-04T14:17:00.212Z,100950.31
2024-02-04T14:19:02.707Z,100943.38
2024-02-04T14:21:07.659Z,100945.06
2024-02-04T14:23:11.171Z,100942.47
2024-02-04T14:25:14.133Z,100938.09
2024-02-04T14:27:17.349Z,100944.16
2024-02-04T14:29:21.918Z,100941.56
2024-02-04T14:31:26.158Z,100940.66
2024-02-04T14:33:28.650Z,100932.88
2024-02-04T14:35:32.827Z,100937.19
2024-02-04T14:37:36.708Z,100938.03
2024-02-04T14:39:39.369Z,100941.44
2024-02-04T14:41:41.835Z,100945.78
2024-02-04T14:43:47.210Z,100943.16
2024-02-04T14:45:50.062Z,100941.41
2024-02-04T14:47:53.065Z,100945.75
2024-02-04T14:49:56.854Z,100945.72
2024-02-04T14:52:00.166Z,100949.19
2024-02-04T14:54:03.411Z,100950.88
2024-02-04T14:56:06.055Z,100952.66
2024-02-04T14:58:08.740Z,100957.81
2024-02-04T15:00:12.477Z,100955.19
2024-02-04T15:02:16.120Z,100961.25
2024-02-04T15:04:18.904Z,100957.75
2024-02-04T15:06:21.862Z,100948.19
2024-02-04T15:08:24.769Z,100942.06
2024-02-04T15:10:27.596Z,100958.50
2024-02-04T15:12:30.632Z,100952.44
2024-02-04T15:14:34.069Z,100960.22
2024-02-04T15:16:41.556Z,100950.63
2024-02-04T15:18:44.537Z,100950.63
2024-02-04T15:20:48.021Z,100956.66
2024-02-04T15:22:50.755Z,100955.72
2024-02-04T15:24:53.527Z,100965.25
2024-02-04T15:26:58.943Z,100964.38
2024-02-04T15:29:05.764Z,100962.59
2024-02-04T15:31:10.244Z,100967.78
2024-02-04T15:33:14.253Z,100955.59
2024-02-04T15:35:17.590Z,100956.44
2024-02-04T15:37:21.253Z,100952.88
2024-02-04T15:39:24.547Z,100958.94
2024-02-04T15:41:27.741Z,100958.91
2024-02-04T15:43:30.990Z,100947.56
2024-02-04T15:45:33.523Z,100950.13
2024-02-04T15:47:46.245Z,100948.31
2024-02-04T15:49:51.819Z,100951.75
2024-02-04T15:51:55.015Z,100937.81
2024-02-04T15:53:57.793Z,100939.50
2024-02-04T15:56:02.711Z,100947.28
2024-02-04T15:58:09.418Z,100935.84
2024-02-04T16:00:19.467Z,100941.91
2024-02-04T16:02:22.795Z,100938.38
2024-02-04T16:04:27.848Z,100932.22
2024-02-04T16:06:30.776Z,100934.75
2024-02-04T16:08:33.516Z,100928.59
2024-02-04T16:10:36.633Z,100920.72
2024-02-04T16:12:39.445Z,100928.41
2024-02-04T16:14:46.895Z,100922.28
2024-02-04T16:16:52.825Z,100929.16
2024-02-04T16:18:56.448Z,100924.75
2024-02-04T16:21:00.240Z,100922.03
2024-02-04T16:23:03.440Z,100921.13
2024-02-04T16:25:08.536Z,100927.09
2024-02-04T16:27:13.000Z,100910.47
2024-02-04T16:29:15.576Z,100922.53
2024-02-04T16:31:18.080Z,100912.84
2024-02-04T16:33:21.088Z,100911.94
2024-02-04T16:35:24.772Z,100909.31
2024-02-04T16:37:28.382Z,100917.97
2024-02-04T16:39:31.053Z,100911.78
2024-02-04T16:41:33.632Z,100907.25
2024-02-04T16:43:36.129Z,100898.53
2024-02-04T16:45:39.081Z,100895.06
2024-02-04T16:47:41.921Z,100895.84
2024-02-04T16:49:44.616Z,100890.56
2024-02-04T16:51:47.142Z,100886.13
2024-02-04T16:53:50.172Z,100879.06
2024-02-04T16:55:54.268Z,100884.28
2024-02-04T16:57:57.180Z,100880.69
2024-02-04T17:00:01.317Z,100875.34
2024-02-04T17:02:06.092Z,100871.78
2024-02-04T17:04:09.106Z,100870.84
2024-02-04T17:06:12.988Z,100881.16
2024-02-04T17:08:16.680Z,100866.25
2024-02-04T17:10:19.442Z,100875.75
2024-02-04T17:12:24.104Z,100864.44
2024-02-04T17:14:27.754Z,100857.44
2024-02-04T17:16:30.824Z,100868.59
2024-02-04T17:18:48.562Z,100865.81
2024-02-04T17:20:57.560Z,100859.66
2024-02-04T17:23:03.331Z,100862.22
2024-02-04T17:25:11.865Z,100868.25
2024-02-04T17:27:15.992Z,100872.53
2024-02-04T17:29:19.442Z,100862.06
2024-02-04T17:31:23.285Z,100862.00
2024-02-04T17:33:27.287Z,100865.41
2024-02-04T17:35:31.721Z,100869.69
2024-02-04T17:37:35.555Z,100862.66
2024-02-04T17:39:42.070Z,100866.97
2024-02-04T17:41:44.530Z,100864.34
2024-02-04T17:43:47.372Z,100865.97
2024-02-04T17:45:50.552Z,100860.72
2024-02-04T17:47:53.085Z,100861.59
2024-02-04T17:49:57.342Z,100852.81
2024-02-04T17:52:00.137Z,100860.63
2024-02-04T17:54:02.745Z,100850.06
2024-02-04T17:56:06.088Z,100853.50
2024-02-04T17:58:09.617Z,100849.94
2024-02-04T18:00:13.313Z,100845.53
2024-02-04T18:02:18.424Z,100848.94
2024-02-04T18:04:26.308Z,100841.91
2024-02-04T18:06:29.439Z,100846.16
2024-02-04T18:08:31.883Z,100843.38
2024-02-04T18:10:34.803Z,100844.19
2024-02-04T18:12:37.765Z,100837.13
2024-02-04T18:14:41.647Z,100832.63
2024-02-04T18:16:44.780Z,100834.34
2024-02-04T18:18:47.368Z,100827.22
2024-02-04T18:20:50.710Z,100820.97
2024-02-04T18:22:53.245Z,100814.88
2024-02-04T18:24:57.173Z,100810.47
2024-02-04T18:27:00.085Z,100812.13
2024-02-04T18:29:05.247Z,100802.50
2024-02-04T18:31:07.659Z,100795.56
2024-02-04T18:33:12.106Z,100799.03
2024-02-04T18:35:15.789Z,100788.47
2024-02-04T18:37:19.201Z,100790.09
2024-02-04T18:39:22.389Z,100787.53
2024-02-04T18:41:26.268Z,100788.38
2024-02-04T18:43:29.254Z,100789.28
2024-02-04T18:45:32.037Z,100780.50
2024-02-04T18:47:35.023Z,100778.72
2024-02-04T18:49:39.120Z,100782.25
2024-02-04T18:51:48.408Z,100775.19
2024-02-04T18:53:51.400Z,100775.13
2024-02-04T18:55:55.257Z,100780.38
2024-02-04T18:57:57.742Z,100771.59
2024-02-04T19:00:01.044Z,100777.59
2024-02-04T19:02:03.679Z,100776.66
2024-02-04T19:04:07.325Z,100775.75
2024-02-04T19:06:10.673Z,100774.00
2024-02-04T19:08:14.504Z,100781.03
2024-02-04T19:10:17.107Z,100773.16
2024-02-04T19:12:20.354Z,100776.63
2024-02-04T19:14:25.019Z,100763.47
2024-02-04T19:16:28.238Z,100775.69
2024-02-04T19:18:31.661Z,100770.47
2024-02-04T19:20:34.507Z,100766.94
2024-02-04T19:22:43.146Z,100776.50
2024-02-04T19:24:46.826Z,100762.63
2024-02-04T19:26:50.522Z,100763.47
2024-02-04T19:28:53.777Z,100773.88
2024-02-04T19:30:57.040Z,100773.91
2024-02-04T19:32:59.540Z,100764.38
2024-02-04T19:35:02.656Z,100766.13
2024-02-04T19:37:07.258Z,100766.91
2024-02-04T19:39:11.318Z,100763.44
2024-02-04T19:41:14.752Z,100772.06
2024-02-04T19:43:17.722Z,100761.59
2024-02-04T19:45:21.508Z,100769.47
2024-02-04T19:47:24.784Z,100771.19
2024-02-04T19:49:30.803Z,100761.63
2024-02-04T19:51:33.796Z,100761.59
2024-02-04T19:53:37.170Z,100755.34
2024-02-04T19:55:39.697Z,100754.50
2024-02-04T19:57:42.952Z,100760.53
2024-02-04T19:59:48.818Z,100753.56
2024-02-04T20:01:55.781Z,100753.63
2024-02-04T20:03:58.908Z,100751.84
2024-02-04T20:06:01.894Z,100754.41
2024-02-04T20:08:05.364Z,100747.44
2024-02-04T20:10:08.670Z,100754.34
2024-02-04T20:12:11.543Z,100753.56
2024-02-04T20:14:14.080Z,100744.78
2024-02-04T20:16:16.619Z,100749.13
2024-02-04T20:18:19.840Z,100750.84
2024-02-04T20:20:23.963Z,100736.09
2024-02-04T20:22:27.253Z,100743.84
2024-02-04T20:24:32.947Z,100742.97
2024-02-04T20:26:40.131Z,100745.53
2024-02-04T20:28:43.030Z,100742.91
2024-02-04T20:30:46.343Z,100748.13
2024-02-04T20:32:48.898Z,100739.41
2024-02-04T20:34:52.522Z,100739.56
2024-02-04T20:36:54.971Z,100731.53
2024-02-04T20:38:58.027Z,100735.09
2024-02-04T20:41:00.940Z,100731.66
2024-02-04T20:43:04.518Z,100728.91
2024-02-04T20:45:07.638Z,100737.66
2024-02-04T20:47:10.872Z,100730.75
2024-02-04T20:49:14.153Z,100732.41
2024-02-04T20:51:18.314Z,100722.06
2024-02-04T20:53:21.315Z,100737.63
2024-02-04T20:55:26.723Z,100723.81
2024-02-04T20:57:29.330Z,100730.78
2024-02-04T20:59:32.639Z,100734.28
2024-02-04T21:01:36.006Z,100727.41
2024-02-04T21:03:39.261Z,100733.53
2024-02-04T21:05:42.749Z,100731.91
2024-02-04T21:07:45.414Z,100737.97
2024-02-04T21:09:49.896Z,100744.97
2024-02-04T21:11:53.986Z,100740.66
2024-02-04T21:13:56.518Z,100748.53
2024-02-04T21:15:59.335Z,100742.47
2024-02-04T21:18:02.754Z,100743.38
2024-02-04T21:20:09.307Z,100739.84
2024-02-04T21:22:12.229Z,100737.22
2024-02-04T21:24:14.912Z,100744.22
2024-02-04T21:26:17.628Z,100746.91
2024-02-04T21:28:22.153Z,100747.88
2024-02-04T21:30:25.641Z,100748.66
2024-02-04T21:32:29.214Z,100743.44
2024-02-04T21:34:31.819Z,100748.69
2024-02-04T21:36:35.523Z,100750.41
2024-02-04T21:38:41.231Z,100748.69
2024-02-04T21:40:44.943Z,100740.13
2024-02-04T21:42:47.382Z,100746.97
2024-02-04T21:44:50.765Z,100741.84
2024-02-04T21:46:53.972Z,100749.75
2024-02-04T21:48:57.500Z,100750.59
2024-02-04T21:51:00.438Z,100754.13
2024-02-04T21:53:07.503Z,100750.66
2024-02-04T21:55:10.557Z,100752.41
2024-02-04T21:57:23.652Z,100751.63
2024-02-04T21:59:26.951Z,100753.41
2024-02-04T22:01:30.407Z,100756.09
2024-02-04T22:03:33.464Z,100763.06
2024-02-04T22:05:38.427Z,100763.13
2024-02-04T22:07:41.140Z,100767.50
2024-02-04T22:09:44.483Z,100769.31
2024-02-04T22:11:46.980Z,100770.25
2024-02-04T22:13:49.416Z,100776.28
2024-02-04T22:15:52.649Z,100770.25
2024-02-04T22:17:58.227Z,100779.03
2024-02-04T22:20:06.523Z,100777.44
2024-02-04T22:22:09.511Z,100793.13
2024-02-04T22:24:12.378Z,100790.53
2024-02-04T22:26:15.819Z,100794.91
2024-02-04T22:28:19.344Z,100799.34
2024-02-04T22:30:23.292Z,100804.66
2024-02-04T22:32:27.568Z,100814.31
2024-02-04T22:34:30.825Z,100810.84
2024-02-04T22:36:36.574Z,100803.16
2024-02-04T22:38:39.009Z,100810.09
2024-02-04T22:40:42.049Z,100810.09
2024-02-04T22:42:44.656Z,100804.25
2024-02-04T22:44:47.191Z,100818.03
2024-02-04T22:46:49.772Z,100812.91
2024-02-04T22:48:52.690Z,100819.03
2024-02-04T22:50:55.858Z,100817.34
2024-02-04T22:52:58.259Z,100819.09
2024-02-04T22:55:01.491Z,100816.56
2024-02-04T22:57:04.418Z,100823.56
2024-02-04T22:59:07.049Z,100821.88
2024-02-04T23:01:09.772Z,100828.00
2024-02-04T23:03:12.715Z,100831.47
2024-02-04T23:05:15.845Z,100826.31
2024-02-04T23:07:27.708Z,100828.94
2024-02-04T23:09:39.233Z,100829.00
2024-02-04T23:11:43.851Z,100819.41
2024-02-04T23:13:48.454Z,100826.44
2024-02-04T23:15:51.287Z,100823.81
2024-02-04T23:17:54.888Z,100829.06
2024-02-04T23:19:58.000Z,100827.44
2024-02-04T23:22:01.230Z,100826.56
2024-02-04T23:24:04.380Z,100831.81
2024-02-04T23:26:08.150Z,100824.00
2024-02-04T23:28:11.611Z,100825.81
2024-02-04T23:30:15.147Z,100828.47
2024-02-04T23:32:18.276Z,100830.19
2024-02-04T23:34:21.390Z,100833.69
2024-02-04T23:36:24.641Z,100833.72